sensor_id;sensor_type;location;lat;lon;timestamp;P1;durP1;ratioP1;P2;durP2;ratioP2
22733;SDS011;11534;51.994;5.692;2023-06-19T00:00:11;1.00;;;0.90;;
22733;SDS011;11534;51.994;5.692;2023-06-19T00:02:39;0.60;;;0.60;;
22733;SDS011;11534;51.994;5.692;2023-06-19T00:05:05;0.77;;;0.70;;
22733;SDS011;11534;51.994;5.692;2023-06-19T00:07:32;0.63;;;0.63;;
22733;SDS011;11534;51.994;5.692;2023-06-19T00:09:58;1.00;;;0.90;;
22733;SDS011;11534;51.994;5.692;2023-06-19T00:12:24;1.00;;;0.80;;
22733;SDS011;11534;51.994;5.692;2023-06-19T00:14:50;0.95;;;0.82;;
22733;SDS011;11534;51.994;5.692;2023-06-19T00:17:17;0.70;;;0.70;;
22733;SDS011;11534;51.994;5.692;2023-06-19T00:19:43;0.75;;;0.75;;
22733;SDS011;11534;51.994;5.692;2023-06-19T00:22:10;0.70;;;0.70;;
22733;SDS011;11534;51.994;5.692;2023-06-19T00:24:35;0.50;;;0.50;;
22733;SDS011;11534;51.994;5.692;2023-06-19T00:27:01;1.40;;;0.95;;
22733;SDS011;11534;51.994;5.692;2023-06-19T00:29:28;0.82;;;0.75;;
22733;SDS011;11534;51.994;5.692;2023-06-19T00:31:54;0.93;;;0.82;;
22733;SDS011;11534;51.994;5.692;2023-06-19T00:34:19;0.70;;;0.70;;
22733;SDS011;11534;51.994;5.692;2023-06-19T00:36:45;0.70;;;0.60;;
22733;SDS011;11534;51.994;5.692;2023-06-19T00:39:11;0.90;;;0.75;;
22733;SDS011;11534;51.994;5.692;2023-06-19T00:41:37;1.65;;;0.95;;
22733;SDS011;11534;51.994;5.692;2023-06-19T00:44:04;0.90;;;0.90;;
22733;SDS011;11534;51.994;5.692;2023-06-19T00:46:30;0.68;;;0.60;;
22733;SDS011;11534;51.994;5.692;2023-06-19T00:48:56;3.88;;;1.25;;
22733;SDS011;11534;51.994;5.692;2023-06-19T00:51:22;0.50;;;0.50;;
22733;SDS011;11534;51.994;5.692;2023-06-19T00:53:48;0.45;;;0.45;;
22733;SDS011;11534;51.994;5.692;2023-06-19T00:56:14;1.15;;;1.00;;
22733;SDS011;11534;51.994;5.692;2023-06-19T00:58:43;0.70;;;0.70;;
22733;SDS011;11534;51.994;5.692;2023-06-19T01:01:10;0.77;;;0.70;;
22733;SDS011;11534;51.994;5.692;2023-06-19T01:03:36;0.63;;;0.60;;
22733;SDS011;11534;51.994;5.692;2023-06-19T01:06:02;0.45;;;0.45;;
22733;SDS011;11534;51.994;5.692;2023-06-19T01:11:08;0.47;;;0.45;;
22733;SDS011;11534;51.994;5.692;2023-06-19T01:16:15;0.40;;;0.40;;
22733;SDS011;11534;51.994;5.692;2023-06-19T01:18:42;0.32;;;0.32;;
22733;SDS011;11534;51.994;5.692;2023-06-19T01:21:12;0.85;;;0.65;;
22733;SDS011;11534;51.994;5.692;2023-06-19T01:23:39;0.65;;;0.57;;
22733;SDS011;11534;51.994;5.692;2023-06-19T01:26:05;1.00;;;0.65;;
22733;SDS011;11534;51.994;5.692;2023-06-19T01:28:32;0.22;;;0.22;;
22733;SDS011;11534;51.994;5.692;2023-06-19T01:31:02;0.43;;;0.40;;
22733;SDS011;11534;51.994;5.692;2023-06-19T01:33:33;0.40;;;0.40;;
22733;SDS011;11534;51.994;5.692;2023-06-19T01:36:02;0.30;;;0.30;;
22733;SDS011;11534;51.994;5.692;2023-06-19T01:38:30;0.35;;;0.30;;
22733;SDS011;11534;51.994;5.692;2023-06-19T01:40:58;0.35;;;0.35;;
22733;SDS011;11534;51.994;5.692;2023-06-19T01:43:26;0.35;;;0.30;;
22733;SDS011;11534;51.994;5.692;2023-06-19T01:45:54;0.30;;;0.30;;
22733;SDS011;11534;51.994;5.692;2023-06-19T01:48:20;0.38;;;0.38;;
22733;SDS011;11534;51.994;5.692;2023-06-19T01:50:49;0.82;;;0.32;;
22733;SDS011;11534;51.994;5.692;2023-06-19T01:53:15;0.28;;;0.28;;
22733;SDS011;11534;51.994;5.692;2023-06-19T01:55:41;0.28;;;0.28;;
22733;SDS011;11534;51.994;5.692;2023-06-19T01:58:07;0.20;;;0.20;;
22733;SDS011;11534;51.994;5.692;2023-06-19T02:00:32;0.38;;;0.38;;
22733;SDS011;11534;51.994;5.692;2023-06-19T02:03:02;0.45;;;0.45;;
22733;SDS011;11534;51.994;5.692;2023-06-19T02:05:32;0.40;;;0.40;;
22733;SDS011;11534;51.994;5.692;2023-06-19T02:08:04;0.20;;;0.20;;
22733;SDS011;11534;51.994;5.692;2023-06-19T02:10:30;0.28;;;0.28;;
22733;SDS011;11534;51.994;5.692;2023-06-19T02:12:56;0.43;;;0.30;;
22733;SDS011;11534;51.994;5.692;2023-06-19T02:15:21;0.30;;;0.30;;
22733;SDS011;11534;51.994;5.692;2023-06-19T02:17:47;0.57;;;0.52;;
22733;SDS011;11534;51.994;5.692;2023-06-19T02:20:13;0.40;;;0.40;;
22733;SDS011;11534;51.994;5.692;2023-06-19T02:22:39;0.20;;;0.20;;
22733;SDS011;11534;51.994;5.692;2023-06-19T02:25:05;0.43;;;0.43;;
22733;SDS011;11534;51.994;5.692;2023-06-19T02:27:31;0.38;;;0.30;;
22733;SDS011;11534;51.994;5.692;2023-06-19T02:29:57;0.40;;;0.40;;
22733;SDS011;11534;51.994;5.692;2023-06-19T02:32:22;0.25;;;0.25;;
22733;SDS011;11534;51.994;5.692;2023-06-19T02:34:48;0.22;;;0.22;;
22733;SDS011;11534;51.994;5.692;2023-06-19T02:37:14;0.20;;;0.20;;
22733;SDS011;11534;51.994;5.692;2023-06-19T02:39:40;0.52;;;0.47;;
22733;SDS011;11534;51.994;5.692;2023-06-19T02:42:07;0.65;;;0.38;;
22733;SDS011;11534;51.994;5.692;2023-06-19T02:44:32;0.63;;;0.60;;
22733;SDS011;11534;51.994;5.692;2023-06-19T02:46:58;0.28;;;0.28;;
22733;SDS011;11534;51.994;5.692;2023-06-19T02:49:24;0.25;;;0.25;;
22733;SDS011;11534;51.994;5.692;2023-06-19T02:51:49;0.28;;;0.28;;
22733;SDS011;11534;51.994;5.692;2023-06-19T02:54:15;0.20;;;0.20;;
22733;SDS011;11534;51.994;5.692;2023-06-19T02:56:41;0.20;;;0.20;;
22733;SDS011;11534;51.994;5.692;2023-06-19T02:59:06;0.25;;;0.25;;
22733;SDS011;11534;51.994;5.692;2023-06-19T03:01:32;0.40;;;0.30;;
22733;SDS011;11534;51.994;5.692;2023-06-19T03:03:59;0.25;;;0.25;;
22733;SDS011;11534;51.994;5.692;2023-06-19T03:06:24;0.20;;;0.20;;
22733;SDS011;11534;51.994;5.692;2023-06-19T03:08:52;0.30;;;0.30;;
22733;SDS011;11534;51.994;5.692;2023-06-19T03:11:18;0.50;;;0.30;;
22733;SDS011;11534;51.994;5.692;2023-06-19T03:13:45;0.20;;;0.20;;
22733;SDS011;11534;51.994;5.692;2023-06-19T03:16:15;0.28;;;0.28;;
22733;SDS011;11534;51.994;5.692;2023-06-19T03:18:42;0.47;;;0.47;;
22733;SDS011;11534;51.994;5.692;2023-06-19T03:21:09;0.25;;;0.25;;
22733;SDS011;11534;51.994;5.692;2023-06-19T03:23:38;0.20;;;0.20;;
22733;SDS011;11534;51.994;5.692;2023-06-19T03:26:06;0.30;;;0.30;;
22733;SDS011;11534;51.994;5.692;2023-06-19T03:28:32;0.30;;;0.30;;
22733;SDS011;11534;51.994;5.692;2023-06-19T03:30:58;0.10;;;0.10;;
22733;SDS011;11534;51.994;5.692;2023-06-19T03:33:23;0.20;;;0.20;;
22733;SDS011;11534;51.994;5.692;2023-06-19T03:35:49;0.20;;;0.20;;
22733;SDS011;11534;51.994;5.692;2023-06-19T03:38:15;0.22;;;0.22;;
22733;SDS011;11534;51.994;5.692;2023-06-19T03:40:42;0.30;;;0.30;;
22733;SDS011;11534;51.994;5.692;2023-06-19T03:43:08;0.30;;;0.30;;
22733;SDS011;11534;51.994;5.692;2023-06-19T03:45:33;0.22;;;0.22;;
22733;SDS011;11534;51.994;5.692;2023-06-19T03:48:00;0.20;;;0.20;;
22733;SDS011;11534;51.994;5.692;2023-06-19T03:50:26;0.10;;;0.10;;
22733;SDS011;11534;51.994;5.692;2023-06-19T03:52:51;0.22;;;0.22;;
22733;SDS011;11534;51.994;5.692;2023-06-19T03:55:17;0.30;;;0.30;;
22733;SDS011;11534;51.994;5.692;2023-06-19T03:57:44;0.22;;;0.22;;
22733;SDS011;11534;51.994;5.692;2023-06-19T04:00:10;0.28;;;0.28;;
22733;SDS011;11534;51.994;5.692;2023-06-19T04:02:39;0.10;;;0.10;;
22733;SDS011;11534;51.994;5.692;2023-06-19T04:05:08;0.30;;;0.30;;
22733;SDS011;11534;51.994;5.692;2023-06-19T04:07:33;0.22;;;0.22;;
22733;SDS011;11534;51.994;5.692;2023-06-19T04:09:59;0.30;;;0.30;;
22733;SDS011;11534;51.994;5.692;2023-06-19T04:12:25;0.32;;;0.30;;
22733;SDS011;11534;51.994;5.692;2023-06-19T04:14:51;0.20;;;0.20;;
22733;SDS011;11534;51.994;5.692;2023-06-19T04:17:17;0.30;;;0.30;;
22733;SDS011;11534;51.994;5.692;2023-06-19T04:19:42;0.20;;;0.20;;
22733;SDS011;11534;51.994;5.692;2023-06-19T04:22:08;0.20;;;0.20;;
22733;SDS011;11534;51.994;5.692;2023-06-19T04:24:35;0.30;;;0.30;;
22733;SDS011;11534;51.994;5.692;2023-06-19T04:27:01;0.30;;;0.30;;
22733;SDS011;11534;51.994;5.692;2023-06-19T04:29:27;0.10;;;0.10;;
22733;SDS011;11534;51.994;5.692;2023-06-19T04:31:59;0.30;;;0.30;;
22733;SDS011;11534;51.994;5.692;2023-06-19T04:34:28;0.30;;;0.30;;
22733;SDS011;11534;51.994;5.692;2023-06-19T04:36:56;0.20;;;0.20;;
22733;SDS011;11534;51.994;5.692;2023-06-19T04:39:23;0.52;;;0.52;;
22733;SDS011;11534;51.994;5.692;2023-06-19T04:41:49;0.13;;;0.13;;
22733;SDS011;11534;51.994;5.692;2023-06-19T04:44:15;0.20;;;0.20;;
22733;SDS011;11534;51.994;5.692;2023-06-19T04:46:41;0.20;;;0.20;;
22733;SDS011;11534;51.994;5.692;2023-06-19T04:49:09;0.20;;;0.20;;
22733;SDS011;11534;51.994;5.692;2023-06-19T04:51:34;0.20;;;0.20;;
22733;SDS011;11534;51.994;5.692;2023-06-19T04:54:00;0.35;;;0.35;;
22733;SDS011;11534;51.994;5.692;2023-06-19T04:56:27;0.25;;;0.25;;
22733;SDS011;11534;51.994;5.692;2023-06-19T04:58:53;1.00;;;0.40;;
22733;SDS011;11534;51.994;5.692;2023-06-19T05:01:24;0.20;;;0.20;;
22733;SDS011;11534;51.994;5.692;2023-06-19T05:03:53;0.50;;;0.45;;
22733;SDS011;11534;51.994;5.692;2023-06-19T05:06:20;0.60;;;0.60;;
22733;SDS011;11534;51.994;5.692;2023-06-19T05:08:46;0.30;;;0.30;;
22733;SDS011;11534;51.994;5.692;2023-06-19T05:11:12;0.17;;;0.17;;
22733;SDS011;11534;51.994;5.692;2023-06-19T05:13:38;0.25;;;0.25;;
22733;SDS011;11534;51.994;5.692;2023-06-19T05:16:04;0.35;;;0.35;;
22733;SDS011;11534;51.994;5.692;2023-06-19T05:18:31;0.40;;;0.40;;
22733;SDS011;11534;51.994;5.692;2023-06-19T05:20:56;0.20;;;0.20;;
22733;SDS011;11534;51.994;5.692;2023-06-19T05:23:22;0.30;;;0.30;;
22733;SDS011;11534;51.994;5.692;2023-06-19T05:25:49;0.40;;;0.30;;
22733;SDS011;11534;51.994;5.692;2023-06-19T05:28:15;0.40;;;0.40;;
22733;SDS011;11534;51.994;5.692;2023-06-19T05:30:40;0.35;;;0.35;;
22733;SDS011;11534;51.994;5.692;2023-06-19T05:33:06;0.32;;;0.32;;
22733;SDS011;11534;51.994;5.692;2023-06-19T05:35:32;0.40;;;0.40;;
22733;SDS011;11534;51.994;5.692;2023-06-19T05:37:59;0.35;;;0.35;;
22733;SDS011;11534;51.994;5.692;2023-06-19T05:40:24;0.52;;;0.52;;
22733;SDS011;11534;51.994;5.692;2023-06-19T05:42:50;0.45;;;0.45;;
22733;SDS011;11534;51.994;5.692;2023-06-19T05:45:16;0.30;;;0.30;;
22733;SDS011;11534;51.994;5.692;2023-06-19T05:47:42;0.40;;;0.40;;
22733;SDS011;11534;51.994;5.692;2023-06-19T05:50:08;0.47;;;0.38;;
22733;SDS011;11534;51.994;5.692;2023-06-19T05:52:34;0.28;;;0.28;;
22733;SDS011;11534;51.994;5.692;2023-06-19T05:55:00;0.38;;;0.38;;
22733;SDS011;11534;51.994;5.692;2023-06-19T05:57:26;0.30;;;0.30;;
22733;SDS011;11534;51.994;5.692;2023-06-19T05:59:52;0.45;;;0.45;;
22733;SDS011;11534;51.994;5.692;2023-06-19T06:02:18;0.50;;;0.50;;
22733;SDS011;11534;51.994;5.692;2023-06-19T06:04:45;0.30;;;0.30;;
22733;SDS011;11534;51.994;5.692;2023-06-19T06:07:11;2.65;;;0.82;;
22733;SDS011;11534;51.994;5.692;2023-06-19T06:09:38;0.47;;;0.40;;
22733;SDS011;11534;51.994;5.692;2023-06-19T06:12:05;0.40;;;0.35;;
22733;SDS011;11534;51.994;5.692;2023-06-19T06:14:31;0.40;;;0.40;;
22733;SDS011;11534;51.994;5.692;2023-06-19T06:16:57;0.40;;;0.40;;
22733;SDS011;11534;51.994;5.692;2023-06-19T06:19:24;0.98;;;0.88;;
22733;SDS011;11534;51.994;5.692;2023-06-19T06:21:51;0.68;;;0.65;;
22733;SDS011;11534;51.994;5.692;2023-06-19T06:24:17;0.47;;;0.47;;
22733;SDS011;11534;51.994;5.692;2023-06-19T06:26:42;0.82;;;0.70;;
22733;SDS011;11534;51.994;5.692;2023-06-19T06:29:08;0.50;;;0.50;;
22733;SDS011;11534;51.994;5.692;2023-06-19T06:31:34;0.52;;;0.52;;
22733;SDS011;11534;51.994;5.692;2023-06-19T06:34:02;0.60;;;0.43;;
22733;SDS011;11534;51.994;5.692;2023-06-19T06:36:29;0.38;;;0.38;;
22733;SDS011;11534;51.994;5.692;2023-06-19T06:38:55;0.38;;;0.38;;
22733;SDS011;11534;51.994;5.692;2023-06-19T06:41:21;1.08;;;0.73;;
22733;SDS011;11534;51.994;5.692;2023-06-19T06:43:47;0.30;;;0.30;;
22733;SDS011;11534;51.994;5.692;2023-06-19T06:46:12;0.32;;;0.32;;
22733;SDS011;11534;51.994;5.692;2023-06-19T06:48:39;0.32;;;0.32;;
22733;SDS011;11534;51.994;5.692;2023-06-19T06:51:05;0.43;;;0.43;;
22733;SDS011;11534;51.994;5.692;2023-06-19T06:53:31;0.50;;;0.50;;
22733;SDS011;11534;51.994;5.692;2023-06-19T06:55:59;0.40;;;0.40;;
22733;SDS011;11534;51.994;5.692;2023-06-19T06:58:27;0.30;;;0.30;;
22733;SDS011;11534;51.994;5.692;2023-06-19T07:00:53;0.50;;;0.50;;
22733;SDS011;11534;51.994;5.692;2023-06-19T07:03:20;0.50;;;0.50;;
22733;SDS011;11534;51.994;5.692;2023-06-19T07:05:50;0.65;;;0.65;;
22733;SDS011;11534;51.994;5.692;2023-06-19T07:08:15;0.50;;;0.50;;
22733;SDS011;11534;51.994;5.692;2023-06-19T07:10:41;0.50;;;0.50;;
22733;SDS011;11534;51.994;5.692;2023-06-19T07:13:07;0.73;;;0.73;;
22733;SDS011;11534;51.994;5.692;2023-06-19T07:15:32;0.70;;;0.60;;
22733;SDS011;11534;51.994;5.692;2023-06-19T07:17:58;0.50;;;0.47;;
22733;SDS011;11534;51.994;5.692;2023-06-19T07:20:24;0.40;;;0.40;;
22733;SDS011;11534;51.994;5.692;2023-06-19T07:22:50;0.30;;;0.30;;
22733;SDS011;11534;51.994;5.692;2023-06-19T07:25:16;0.80;;;0.77;;
22733;SDS011;11534;51.994;5.692;2023-06-19T07:27:42;0.88;;;0.63;;
22733;SDS011;11534;51.994;5.692;2023-06-19T07:30:08;0.40;;;0.40;;
22733;SDS011;11534;51.994;5.692;2023-06-19T07:32:36;1.17;;;1.08;;
22733;SDS011;11534;51.994;5.692;2023-06-19T07:35:02;1.42;;;1.27;;
22733;SDS011;11534;51.994;5.692;2023-06-19T07:37:30;1.23;;;1.00;;
22733;SDS011;11534;51.994;5.692;2023-06-19T07:39:57;1.23;;;1.13;;
22733;SDS011;11534;51.994;5.692;2023-06-19T07:42:22;4.57;;;1.15;;
22733;SDS011;11534;51.994;5.692;2023-06-19T07:44:48;2.17;;;1.13;;
22733;SDS011;11534;51.994;5.692;2023-06-19T07:47:15;0.95;;;0.90;;
22733;SDS011;11534;51.994;5.692;2023-06-19T07:49:42;0.80;;;0.80;;
22733;SDS011;11534;51.994;5.692;2023-06-19T07:52:07;1.17;;;0.95;;
22733;SDS011;11534;51.994;5.692;2023-06-19T07:54:36;0.60;;;0.60;;
22733;SDS011;11534;51.994;5.692;2023-06-19T07:57:12;1.20;;;1.10;;
22733;SDS011;11534;51.994;5.692;2023-06-19T07:59:38;0.75;;;0.70;;
22733;SDS011;11534;51.994;5.692;2023-06-19T08:02:04;0.85;;;0.82;;
22733;SDS011;11534;51.994;5.692;2023-06-19T08:04:30;2.47;;;1.67;;
22733;SDS011;11534;51.994;5.692;2023-06-19T08:06:56;2.03;;;1.88;;
22733;SDS011;11534;51.994;5.692;2023-06-19T08:09:21;1.33;;;1.20;;
22733;SDS011;11534;51.994;5.692;2023-06-19T08:11:47;1.23;;;1.13;;
22733;SDS011;11534;51.994;5.692;2023-06-19T08:14:13;1.15;;;1.05;;
22733;SDS011;11534;51.994;5.692;2023-06-19T08:16:39;1.27;;;1.15;;
22733;SDS011;11534;51.994;5.692;2023-06-19T08:19:04;1.77;;;1.08;;
22733;SDS011;11534;51.994;5.692;2023-06-19T08:21:30;1.40;;;1.20;;
22733;SDS011;11534;51.994;5.692;2023-06-19T08:23:57;0.90;;;0.90;;
22733;SDS011;11534;51.994;5.692;2023-06-19T08:26:23;2.00;;;1.50;;
22733;SDS011;11534;51.994;5.692;2023-06-19T08:28:49;1.80;;;1.65;;
22733;SDS011;11534;51.994;5.692;2023-06-19T08:31:14;1.38;;;1.27;;
22733;SDS011;11534;51.994;5.692;2023-06-19T08:33:41;1.30;;;1.20;;
22733;SDS011;11534;51.994;5.692;2023-06-19T08:36:07;1.13;;;1.00;;
22733;SDS011;11534;51.994;5.692;2023-06-19T08:38:33;1.25;;;1.15;;
22733;SDS011;11534;51.994;5.692;2023-06-19T08:40:58;1.33;;;1.13;;
22733;SDS011;11534;51.994;5.692;2023-06-19T08:43:24;1.20;;;0.90;;
22733;SDS011;11534;51.994;5.692;2023-06-19T08:46:05;1.45;;;1.20;;
22733;SDS011;11534;51.994;5.692;2023-06-19T08:48:37;1.63;;;1.52;;
22733;SDS011;11534;51.994;5.692;2023-06-19T08:51:04;1.50;;;1.38;;
22733;SDS011;11534;51.994;5.692;2023-06-19T08:53:33;1.42;;;1.20;;
22733;SDS011;11534;51.994;5.692;2023-06-19T08:56:00;1.42;;;1.10;;
22733;SDS011;11534;51.994;5.692;2023-06-19T08:58:27;1.17;;;1.08;;
22733;SDS011;11534;51.994;5.692;2023-06-19T09:00:53;1.50;;;1.20;;
22733;SDS011;11534;51.994;5.692;2023-06-19T09:03:22;1.35;;;1.25;;
22733;SDS011;11534;51.994;5.692;2023-06-19T09:05:48;1.90;;;1.30;;
22733;SDS011;11534;51.994;5.692;2023-06-19T09:08:17;1.45;;;1.33;;
22733;SDS011;11534;51.994;5.692;2023-06-19T09:10:57;1.65;;;1.50;;
22733;SDS011;11534;51.994;5.692;2023-06-19T09:13:24;1.52;;;1.35;;
22733;SDS011;11534;51.994;5.692;2023-06-19T09:16:00;1.85;;;1.40;;
22733;SDS011;11534;51.994;5.692;2023-06-19T09:18:31;3.30;;;1.40;;
22733;SDS011;11534;51.994;5.692;2023-06-19T09:21:14;1.88;;;1.67;;
22733;SDS011;11534;51.994;5.692;2023-06-19T09:23:41;1.60;;;1.48;;
22733;SDS011;11534;51.994;5.692;2023-06-19T09:26:07;2.90;;;1.90;;
22733;SDS011;11534;51.994;5.692;2023-06-19T09:28:33;1.50;;;1.40;;
22733;SDS011;11534;51.994;5.692;2023-06-19T09:31:02;1.95;;;1.63;;
22733;SDS011;11534;51.994;5.692;2023-06-19T09:33:31;1.73;;;1.40;;
22733;SDS011;11534;51.994;5.692;2023-06-19T09:35:59;2.22;;;1.45;;
22733;SDS011;11534;51.994;5.692;2023-06-19T09:38:27;2.30;;;1.95;;
22733;SDS011;11534;51.994;5.692;2023-06-19T09:40:55;1.52;;;1.42;;
22733;SDS011;11534;51.994;5.692;2023-06-19T09:43:24;2.33;;;1.55;;
22733;SDS011;11534;51.994;5.692;2023-06-19T09:45:55;1.73;;;1.63;;
22733;SDS011;11534;51.994;5.692;2023-06-19T09:48:28;2.00;;;1.50;;
22733;SDS011;11534;51.994;5.692;2023-06-19T09:53:44;2.40;;;1.92;;
22733;SDS011;11534;51.994;5.692;2023-06-19T09:56:12;1.40;;;1.27;;
22733;SDS011;11534;51.994;5.692;2023-06-19T09:58:38;2.50;;;2.00;;
22733;SDS011;11534;51.994;5.692;2023-06-19T10:01:05;2.40;;;1.65;;
22733;SDS011;11534;51.994;5.692;2023-06-19T10:03:33;1.50;;;1.40;;
22733;SDS011;11534;51.994;5.692;2023-06-19T10:06:00;1.90;;;1.70;;
22733;SDS011;11534;51.994;5.692;2023-06-19T10:08:28;1.60;;;1.30;;
22733;SDS011;11534;51.994;5.692;2023-06-19T10:11:11;2.05;;;1.42;;
22733;SDS011;11534;51.994;5.692;2023-06-19T10:13:39;1.50;;;1.40;;
22733;SDS011;11534;51.994;5.692;2023-06-19T10:16:06;2.58;;;1.90;;
22733;SDS011;11534;51.994;5.692;2023-06-19T10:18:32;2.55;;;2.00;;
22733;SDS011;11534;51.994;5.692;2023-06-19T10:21:17;1.65;;;1.45;;
22733;SDS011;11534;51.994;5.692;2023-06-19T10:23:43;2.00;;;1.80;;
22733;SDS011;11534;51.994;5.692;2023-06-19T10:26:29;1.95;;;1.63;;
22733;SDS011;11534;51.994;5.692;2023-06-19T10:28:58;1.70;;;1.50;;
22733;SDS011;11534;51.994;5.692;2023-06-19T10:31:24;2.33;;;1.77;;
22733;SDS011;11534;51.994;5.692;2023-06-19T10:33:50;2.78;;;1.70;;
22733;SDS011;11534;51.994;5.692;2023-06-19T10:36:17;2.15;;;1.75;;
22733;SDS011;11534;51.994;5.692;2023-06-19T10:38:44;2.00;;;1.65;;
22733;SDS011;11534;51.994;5.692;2023-06-19T10:41:18;3.30;;;2.05;;
22733;SDS011;11534;51.994;5.692;2023-06-19T10:43:58;2.28;;;1.90;;
22733;SDS011;11534;51.994;5.692;2023-06-19T10:46:28;1.70;;;1.52;;
22733;SDS011;11534;51.994;5.692;2023-06-19T10:48:57;2.63;;;1.98;;
22733;SDS011;11534;51.994;5.692;2023-06-19T10:51:26;3.20;;;2.63;;
22733;SDS011;11534;51.994;5.692;2023-06-19T10:53:54;1.42;;;1.25;;
22733;SDS011;11534;51.994;5.692;2023-06-19T10:56:21;2.00;;;1.60;;
22733;SDS011;11534;51.994;5.692;2023-06-19T10:58:47;3.17;;;2.80;;
22733;SDS011;11534;51.994;5.692;2023-06-19T11:01:13;2.08;;;1.77;;
22733;SDS011;11534;51.994;5.692;2023-06-19T11:03:39;2.05;;;1.55;;
22733;SDS011;11534;51.994;5.692;2023-06-19T11:06:05;3.33;;;1.70;;
22733;SDS011;11534;51.994;5.692;2023-06-19T11:08:30;3.47;;;2.05;;
22733;SDS011;11534;51.994;5.692;2023-06-19T11:10:56;2.50;;;2.13;;
22733;SDS011;11534;51.994;5.692;2023-06-19T11:13:22;2.22;;;1.90;;
22733;SDS011;11534;51.994;5.692;2023-06-19T11:15:48;1.38;;;1.23;;
22733;SDS011;11534;51.994;5.692;2023-06-19T11:18:15;2.92;;;1.63;;
22733;SDS011;11534;51.994;5.692;2023-06-19T11:20:46;2.15;;;1.70;;
22733;SDS011;11534;51.994;5.692;2023-06-19T11:23:15;2.30;;;1.63;;
22733;SDS011;11534;51.994;5.692;2023-06-19T11:25:41;3.05;;;2.25;;
22733;SDS011;11534;51.994;5.692;2023-06-19T11:28:14;2.00;;;1.08;;
22733;SDS011;11534;51.994;5.692;2023-06-19T11:30:43;2.28;;;1.88;;
22733;SDS011;11534;51.994;5.692;2023-06-19T11:33:18;2.50;;;1.88;;
22733;SDS011;11534;51.994;5.692;2023-06-19T11:35:52;2.13;;;1.88;;
22733;SDS011;11534;51.994;5.692;2023-06-19T11:38:20;2.53;;;2.00;;
22733;SDS011;11534;51.994;5.692;2023-06-19T11:40:47;4.90;;;2.28;;
22733;SDS011;11534;51.994;5.692;2023-06-19T11:43:23;1.70;;;1.38;;
22733;SDS011;11534;51.994;5.692;2023-06-19T11:46:02;1.90;;;1.45;;
22733;SDS011;11534;51.994;5.692;2023-06-19T11:48:29;3.38;;;2.03;;
22733;SDS011;11534;51.994;5.692;2023-06-19T11:50:55;2.15;;;1.27;;
22733;SDS011;11534;51.994;5.692;2023-06-19T11:53:21;1.65;;;1.45;;
22733;SDS011;11534;51.994;5.692;2023-06-19T11:55:48;2.13;;;1.73;;
22733;SDS011;11534;51.994;5.692;2023-06-19T11:58:15;2.58;;;1.73;;
22733;SDS011;11534;51.994;5.692;2023-06-19T12:00:41;2.42;;;1.60;;
22733;SDS011;11534;51.994;5.692;2023-06-19T12:03:08;2.38;;;1.80;;
22733;SDS011;11534;51.994;5.692;2023-06-19T12:05:34;2.10;;;1.77;;
22733;SDS011;11534;51.994;5.692;2023-06-19T12:08:04;1.95;;;1.73;;
22733;SDS011;11534;51.994;5.692;2023-06-19T12:10:30;3.38;;;2.25;;
22733;SDS011;11534;51.994;5.692;2023-06-19T12:12:56;1.90;;;1.70;;
22733;SDS011;11534;51.994;5.692;2023-06-19T12:15:22;1.92;;;1.73;;
22733;SDS011;11534;51.994;5.692;2023-06-19T12:17:50;1.65;;;1.40;;
22733;SDS011;11534;51.994;5.692;2023-06-19T12:20:16;1.45;;;1.33;;
22733;SDS011;11534;51.994;5.692;2023-06-19T12:22:42;1.55;;;1.27;;
22733;SDS011;11534;51.994;5.692;2023-06-19T12:25:08;1.67;;;1.00;;
22733;SDS011;11534;51.994;5.692;2023-06-19T12:27:34;2.15;;;1.63;;
22733;SDS011;11534;51.994;5.692;2023-06-19T12:29:59;1.75;;;1.58;;
22733;SDS011;11534;51.994;5.692;2023-06-19T12:32:25;2.28;;;2.05;;
22733;SDS011;11534;51.994;5.692;2023-06-19T12:34:51;1.35;;;1.25;;
22733;SDS011;11534;51.994;5.692;2023-06-19T12:37:18;2.35;;;1.83;;
22733;SDS011;11534;51.994;5.692;2023-06-19T12:39:45;2.75;;;1.77;;
22733;SDS011;11534;51.994;5.692;2023-06-19T12:42:11;2.40;;;1.65;;
22733;SDS011;11534;51.994;5.692;2023-06-19T12:44:40;1.50;;;1.20;;
22733;SDS011;11534;51.994;5.692;2023-06-19T12:47:07;1.77;;;1.33;;
22733;SDS011;11534;51.994;5.692;2023-06-19T12:49:33;2.28;;;1.60;;
22733;SDS011;11534;51.994;5.692;2023-06-19T12:51:59;1.55;;;1.33;;
22733;SDS011;11534;51.994;5.692;2023-06-19T12:54:25;1.77;;;1.38;;
22733;SDS011;11534;51.994;5.692;2023-06-19T12:56:52;1.85;;;1.30;;
22733;SDS011;11534;51.994;5.692;2023-06-19T12:59:18;0.93;;;0.85;;
22733;SDS011;11534;51.994;5.692;2023-06-19T13:01:43;1.10;;;1.00;;
22733;SDS011;11534;51.994;5.692;2023-06-19T13:04:11;1.80;;;1.50;;
22733;SDS011;11534;51.994;5.692;2023-06-19T13:06:37;1.40;;;1.30;;
22733;SDS011;11534;51.994;5.692;2023-06-19T13:09:03;1.15;;;1.05;;
22733;SDS011;11534;51.994;5.692;2023-06-19T13:11:30;1.65;;;1.00;;
22733;SDS011;11534;51.994;5.692;2023-06-19T13:13:56;2.88;;;1.70;;
22733;SDS011;11534;51.994;5.692;2023-06-19T13:16:22;1.63;;;1.20;;
22733;SDS011;11534;51.994;5.692;2023-06-19T13:18:50;1.52;;;1.08;;
22733;SDS011;11534;51.994;5.692;2023-06-19T13:21:16;1.25;;;0.95;;
22733;SDS011;11534;51.994;5.692;2023-06-19T13:23:42;1.20;;;0.90;;
22733;SDS011;11534;51.994;5.692;2023-06-19T13:26:08;1.70;;;1.40;;
22733;SDS011;11534;51.994;5.692;2023-06-19T13:28:33;1.67;;;1.48;;
22733;SDS011;11534;51.994;5.692;2023-06-19T13:30:59;1.70;;;1.23;;
22733;SDS011;11534;51.994;5.692;2023-06-19T13:33:25;1.65;;;1.25;;
22733;SDS011;11534;51.994;5.692;2023-06-19T13:35:52;1.50;;;1.27;;
22733;SDS011;11534;51.994;5.692;2023-06-19T13:38:17;1.95;;;1.33;;
22733;SDS011;11534;51.994;5.692;2023-06-19T13:40:43;1.73;;;1.38;;
22733;SDS011;11534;51.994;5.692;2023-06-19T13:43:09;1.92;;;1.40;;
22733;SDS011;11534;51.994;5.692;2023-06-19T13:45:35;2.10;;;1.38;;
22733;SDS011;11534;51.994;5.692;2023-06-19T13:48:03;1.55;;;1.45;;
22733;SDS011;11534;51.994;5.692;2023-06-19T13:50:29;1.73;;;1.52;;
22733;SDS011;11534;51.994;5.692;2023-06-19T13:52:55;1.63;;;1.48;;
22733;SDS011;11534;51.994;5.692;2023-06-19T13:55:21;2.20;;;1.48;;
22733;SDS011;11534;51.994;5.692;2023-06-19T13:57:48;2.10;;;1.70;;
22733;SDS011;11534;51.994;5.692;2023-06-19T14:00:13;1.80;;;1.42;;
22733;SDS011;11534;51.994;5.692;2023-06-19T14:02:39;2.10;;;1.42;;
22733;SDS011;11534;51.994;5.692;2023-06-19T14:05:06;1.67;;;1.20;;
22733;SDS011;11534;51.994;5.692;2023-06-19T14:07:33;2.28;;;1.48;;
22733;SDS011;11534;51.994;5.692;2023-06-19T14:10:00;1.45;;;1.05;;
22733;SDS011;11534;51.994;5.692;2023-06-19T14:12:27;1.40;;;1.20;;
22733;SDS011;11534;51.994;5.692;2023-06-19T14:14:54;1.65;;;1.30;;
22733;SDS011;11534;51.994;5.692;2023-06-19T14:17:21;1.35;;;1.20;;
22733;SDS011;11534;51.994;5.692;2023-06-19T14:19:47;1.33;;;1.00;;
22733;SDS011;11534;51.994;5.692;2023-06-19T14:22:12;1.73;;;1.38;;
22733;SDS011;11534;51.994;5.692;2023-06-19T14:24:38;2.17;;;1.25;;
22733;SDS011;11534;51.994;5.692;2023-06-19T14:27:04;1.83;;;1.50;;
22733;SDS011;11534;51.994;5.692;2023-06-19T14:29:30;1.38;;;1.15;;
22733;SDS011;11534;51.994;5.692;2023-06-19T14:31:55;1.50;;;1.00;;
22733;SDS011;11534;51.994;5.692;2023-06-19T14:34:21;1.50;;;1.20;;
22733;SDS011;11534;51.994;5.692;2023-06-19T14:36:48;3.28;;;2.25;;
22733;SDS011;11534;51.994;5.692;2023-06-19T14:39:14;1.40;;;1.13;;
22733;SDS011;11534;51.994;5.692;2023-06-19T14:41:39;1.23;;;0.80;;
22733;SDS011;11534;51.994;5.692;2023-06-19T14:44:05;1.48;;;1.38;;
22733;SDS011;11534;51.994;5.692;2023-06-19T14:46:31;1.42;;;1.23;;
22733;SDS011;11534;51.994;5.692;2023-06-19T14:49:03;1.85;;;1.42;;
22733;SDS011;11534;51.994;5.692;2023-06-19T14:51:32;1.65;;;1.55;;
22733;SDS011;11534;51.994;5.692;2023-06-19T14:53:58;2.42;;;1.70;;